Time;durP1;ratioP1;P1;durP2;ratioP2;P2;SDS_P1;SDS_P2;PMS_P1;PMS_P2;Temp;Humidity;BMP_temperature;BMP_pressure;BME280_temperature;BME280_humidity;BME280_pressure;Samples;Min_cycle;Max_cycle;Signal;HPM_P1;HPM_P2
2023/06/07 00:00:16;;;;;;;2.40;2.20;;;;;;;;;;4923467;29;20210;-72
2023/06/07 00:02:42;;;;;;;3.40;2.47;;;;;;;;;;4925867;29;20186;-72
2023/06/07 00:05:09;;;;;;;2.43;2.23;;;;;;;;;;4925113;29;20210;-72
2023/06/07 00:07:35;;;;;;;2.90;2.40;;;;;;;;;;4922367;29;20186;-71
2023/06/07 00:10:04;;;;;;;2.60;2.30;;;;;;;;;;4923790;29;20209;-72
2023/06/07 00:12:31;;;;;;;2.50;2.30;;;;;;;;;;4929245;29;20190;-72
2023/06/07 00:14:59;;;;;;;3.17;2.30;;;;;;;;;;4927154;29;20269;-72
2023/06/07 00:17:27;;;;;;;2.50;2.30;;;;;;;;;;4925328;29;20182;-72
2023/06/07 00:19:53;;;;;;;4.13;2.17;;;;;;;;;;4921181;29;20214;-72
2023/06/07 00:22:20;;;;;;;3.57;2.30;;;;;;;;;;4925715;29;20190;-72
2023/06/07 00:24:46;;;;;;;2.17;2.00;;;;;;;;;;4922970;29;20225;-72
2023/06/07 00:27:12;;;;;;;3.40;2.43;;;;;;;;;;4934045;29;20213;-72
2023/06/07 00:29:38;;;;;;;2.37;2.00;;;;;;;;;;4935128;29;20182;-72
2023/06/07 00:32:04;;;;;;;3.40;2.30;;;;;;;;;;4929719;29;20190;-72
2023/06/07 00:34:31;;;;;;;2.33;2.13;;;;;;;;;;4928351;29;20186;-72
2023/06/07 00:36:58;;;;;;;2.93;2.50;;;;;;;;;;4928480;29;20197;-72
2023/06/07 00:39:24;;;;;;;3.17;2.27;;;;;;;;;;4932160;29;20197;-72
2023/06/07 00:41:51;;;;;;;2.80;2.23;;;;;;;;;;4927858;29;20277;-72
2023/06/07 00:44:17;;;;;;;2.77;2.43;;;;;;;;;;4929037;29;20205;-71
2023/06/07 00:46:43;;;;;;;3.73;2.50;;;;;;;;;;4923606;29;20183;-72
2023/06/07 00:49:10;;;;;;;2.90;2.47;;;;;;;;;;4928345;29;20212;-72
2023/06/07 00:51:36;;;;;;;2.50;2.30;;;;;;;;;;4928269;29;20221;-72
2023/06/07 00:54:05;;;;;;;2.80;2.60;;;;;;;;;;4925319;29;20193;-72
2023/06/07 00:56:31;;;;;;;2.40;2.20;;;;;;;;;;4930081;29;20205;-72
2023/06/07 00:58:58;;;;;;;5.00;2.30;;;;;;;;;;4924743;29;20218;-72
2023/06/07 01:01:25;;;;;;;3.23;2.10;;;;;;;;;;4923611;29;20210;-71
2023/06/07 01:03:53;;;;;;;2.40;2.17;;;;;;;;;;4908120;29;20274;-72
2023/06/07 01:06:21;;;;;;;2.53;2.33;;;;;;;;;;4928284;29;20221;-72
2023/06/07 01:08:48;;;;;;;5.87;2.70;;;;;;;;;;4922576;29;20205;-72
2023/06/07 01:11:15;;;;;;;2.77;2.47;;;;;;;;;;4929462;29;20217;-72
2023/06/07 01:13:43;;;;;;;2.40;2.20;;;;;;;;;;4910605;29;20202;-71
2023/06/07 01:16:09;;;;;;;2.57;2.10;;;;;;;;;;4927279;29;20197;-72
2023/06/07 01:18:38;;;;;;;4.40;2.20;;;;;;;;;;4924710;29;20194;-72
2023/06/07 01:21:05;;;;;;;2.40;2.20;;;;;;;;;;4923648;29;20212;-72
2023/06/07 01:23:36;;;;;;;2.67;2.47;;;;;;;;;;4921770;29;20191;-72
2023/06/07 01:26:04;;;;;;;2.43;2.23;;;;;;;;;;4924228;29;20179;-72
2023/06/07 01:28:33;;;;;;;2.60;2.40;;;;;;;;;;4917858;29;20228;-72
2023/06/07 01:31:00;;;;;;;2.43;2.23;;;;;;;;;;4920436;29;20214;-72
2023/06/07 01:33:28;;;;;;;3.10;2.30;;;;;;;;;;4922032;29;20232;-72
2023/06/07 01:35:56;;;;;;;2.57;2.37;;;;;;;;;;4920717;29;20906;-72
2023/06/07 01:38:23;;;;;;;2.70;2.50;;;;;;;;;;4926448;29;20178;-72
2023/06/07 01:40:50;;;;;;;3.30;2.30;;;;;;;;;;4922292;29;20308;-72
2023/06/07 01:43:17;;;;;;;2.63;2.43;;;;;;;;;;4923870;29;20182;-72
2023/06/07 01:45:44;;;;;;;2.73;2.53;;;;;;;;;;4926756;29;20193;-72
2023/06/07 01:48:11;;;;;;;3.60;2.57;;;;;;;;;;4924974;29;20741;-72
2023/06/07 01:50:37;;;;;;;4.43;2.30;;;;;;;;;;4929410;29;20288;-72
2023/06/07 01:53:05;;;;;;;3.37;2.40;;;;;;;;;;4929413;29;20769;-72
2023/06/07 01:55:31;;;;;;;2.73;2.30;;;;;;;;;;4932569;29;20189;-72
2023/06/07 01:58:04;;;;;;;2.40;2.20;;;;;;;;;;4932687;29;21965;-72
2023/06/07 02:00:33;;;;;;;2.50;2.30;;;;;;;;;;4904036;29;20211;-71
2023/06/07 02:03:05;;;;;;;2.57;2.37;;;;;;;;;;4930215;29;20560;-71
2023/06/07 02:05:35;;;;;;;2.43;2.23;;;;;;;;;;4929613;29;20647;-72
2023/06/07 02:08:07;;;;;;;3.07;2.43;;;;;;;;;;4925439;29;20563;-72
2023/06/07 02:10:35;;;;;;;2.47;2.27;;;;;;;;;;4931094;29;20666;-72
2023/06/07 02:13:02;;;;;;;2.50;2.30;;;;;;;;;;4933255;29;20194;-72
2023/06/07 02:15:29;;;;;;;2.83;2.60;;;;;;;;;;4933865;29;20182;-72
2023/06/07 02:18:00;;;;;;;2.97;2.67;;;;;;;;;;4932796;29;20672;-72
2023/06/07 02:20:29;;;;;;;3.03;2.77;;;;;;;;;;4932513;29;20210;-72
2023/06/07 02:22:56;;;;;;;4.13;2.90;;;;;;;;;;4933532;29;20194;-72
2023/06/07 02:25:23;;;;;;;3.37;2.73;;;;;;;;;;4934649;29;20190;-72
2023/06/07 02:27:50;;;;;;;4.43;2.87;;;;;;;;;;4928965;29;20221;-72
2023/06/07 02:30:17;;;;;;;3.47;2.90;;;;;;;;;;4920727;29;20214;-72
2023/06/07 02:32:48;;;;;;;3.33;2.67;;;;;;;;;;4921114;29;20190;-71
2023/06/07 02:35:16;;;;;;;2.90;2.60;;;;;;;;;;4934415;29;20264;-72
2023/06/07 02:37:42;;;;;;;2.60;2.40;;;;;;;;;;4933532;29;20185;-72
2023/06/07 02:40:11;;;;;;;3.10;2.80;;;;;;;;;;4912968;29;20222;-72
2023/06/07 02:42:38;;;;;;;3.07;2.77;;;;;;;;;;4935262;29;20186;-72
2023/06/07 02:45:04;;;;;;;4.17;2.77;;;;;;;;;;4925658;29;20194;-72
2023/06/07 02:47:31;;;;;;;3.40;2.90;;;;;;;;;;4925660;29;20278;-72
2023/06/07 02:49:58;;;;;;;3.20;2.90;;;;;;;;;;4926622;29;20217;-71
2023/06/07 02:52:26;;;;;;;4.40;3.10;;;;;;;;;;4912856;29;20844;-72
2023/06/07 02:54:52;;;;;;;4.07;2.93;;;;;;;;;;4925518;29;20178;-72
2023/06/07 02:57:18;;;;;;;2.73;2.53;;;;;;;;;;4931777;29;20190;-72
2023/06/07 02:59:44;;;;;;;3.33;3.00;;;;;;;;;;4929727;29;20673;-72
2023/06/07 03:02:15;;;;;;;3.80;2.90;;;;;;;;;;4922727;29;20264;-72
2023/06/07 03:04:46;;;;;;;4.87;3.33;;;;;;;;;;4927478;29;20186;-72
2023/06/07 03:07:13;;;;;;;3.97;2.70;;;;;;;;;;4927215;29;20225;-72
2023/06/07 03:09:43;;;;;;;3.23;3.00;;;;;;;;;;4921932;29;20650;-72
2023/06/07 03:12:10;;;;;;;3.17;2.90;;;;;;;;;;4926662;29;20614;-72
2023/06/07 03:14:42;;;;;;;3.10;2.80;;;;;;;;;;4907651;29;20178;-72
2023/06/07 03:17:11;;;;;;;3.10;2.80;;;;;;;;;;4931109;29;20241;-71
2023/06/07 03:19:38;;;;;;;3.77;2.80;;;;;;;;;;4927325;29;20707;-72
2023/06/07 03:22:08;;;;;;;2.93;2.60;;;;;;;;;;4922042;29;20183;-71
2023/06/07 03:24:37;;;;;;;3.63;2.63;;;;;;;;;;4897514;29;20551;-72
2023/06/07 03:27:10;;;;;;;3.00;2.70;;;;;;;;;;4921089;29;20179;-72
2023/06/07 03:29:38;;;;;;;3.20;2.90;;;;;;;;;;4929920;29;20193;-72
2023/06/07 03:32:05;;;;;;;3.30;3.00;;;;;;;;;;4931154;29;20564;-72
2023/06/07 03:34:34;;;;;;;3.67;3.13;;;;;;;;;;4931458;29;20190;-72
2023/06/07 03:37:03;;;;;;;3.30;3.00;;;;;;;;;;4930786;29;20212;-72
2023/06/07 03:39:31;;;;;;;3.13;2.67;;;;;;;;;;4931556;29;20217;-72
2023/06/07 03:41:57;;;;;;;3.13;2.83;;;;;;;;;;4931380;29;20198;-72
2023/06/07 03:44:25;;;;;;;3.70;3.07;;;;;;;;;;4930730;29;20190;-72
2023/06/07 03:46:52;;;;;;;3.33;2.90;;;;;;;;;;4930778;29;20221;-72
2023/06/07 03:49:18;;;;;;;4.33;2.73;;;;;;;;;;4923851;29;20261;-72
2023/06/07 03:51:44;;;;;;;5.10;2.90;;;;;;;;;;4906670;29;20210;-72
2023/06/07 03:54:11;;;;;;;3.53;3.10;;;;;;;;;;4923671;29;20255;-72
2023/06/07 03:56:38;;;;;;;3.40;3.10;;;;;;;;;;4918899;29;20222;-72
2023/06/07 03:59:06;;;;;;;3.60;3.30;;;;;;;;;;4922937;29;20182;-72
2023/06/07 04:01:33;;;;;;;4.37;3.20;;;;;;;;;;4916236;29;20256;-72
2023/06/07 04:04:00;;;;;;;4.60;3.23;;;;;;;;;;4920373;29;20190;-72
2023/06/07 04:06:28;;;;;;;3.10;2.80;;;;;;;;;;4920983;29;20902;-72
2023/06/07 04:08:56;;;;;;;3.60;3.00;;;;;;;;;;4920456;29;20194;-72
2023/06/07 04:11:26;;;;;;;3.50;3.20;;;;;;;;;;4923703;29;20236;-72
2023/06/07 04:13:53;;;;;;;3.70;3.20;;;;;;;;;;4925081;29;20221;-72
2023/06/07 04:16:22;;;;;;;5.77;4.17;;;;;;;;;;4922588;29;20182;-72
2023/06/07 04:18:49;;;;;;;4.67;4.27;;;;;;;;;;4917533;29;20634;-72
2023/06/07 04:21:16;;;;;;;5.30;4.03;;;;;;;;;;4916405;29;20210;-71
2023/06/07 04:23:45;;;;;;;4.00;3.40;;;;;;;;;;4912840;29;20658;-71
2023/06/07 04:26:18;;;;;;;4.43;3.60;;;;;;;;;;4923577;29;20192;-71
2023/06/07 04:28:45;;;;;;;4.00;3.60;;;;;;;;;;4925648;29;20233;-72
2023/06/07 04:31:13;;;;;;;3.60;3.30;;;;;;;;;;4930152;29;20685;-72
2023/06/07 04:33:40;;;;;;;4.40;3.73;;;;;;;;;;4932447;29;20238;-72
2023/06/07 04:36:08;;;;;;;5.43;4.40;;;;;;;;;;4937266;29;20182;-72
2023/06/07 04:38:41;;;;;;;8.03;4.37;;;;;;;;;;4928981;29;20174;-72
2023/06/07 04:41:08;;;;;;;5.77;4.40;;;;;;;;;;4938423;29;20209;-72
2023/06/07 04:43:41;;;;;;;4.83;4.43;;;;;;;;;;4925671;29;20568;-72
2023/06/07 04:46:10;;;;;;;5.53;4.60;;;;;;;;;;4930221;29;20198;-72
2023/06/07 04:48:40;;;;;;;4.90;4.40;;;;;;;;;;4919998;29;20282;-72
2023/06/07 04:51:07;;;;;;;5.73;4.37;;;;;;;;;;4923496;29;20213;-72
2023/06/07 04:53:44;;;;;;;4.60;4.20;;;;;;;;;;4923059;29;20189;-72
2023/06/07 04:56:16;;;;;;;5.77;4.63;;;;;;;;;;4921617;29;20178;-72
2023/06/07 04:58:43;;;;;;;4.67;4.00;;;;;;;;;;4923541;29;20204;-72
2023/06/07 05:01:13;;;;;;;4.23;3.90;;;;;;;;;;4926131;29;20217;-72
2023/06/07 05:03:41;;;;;;;6.27;4.10;;;;;;;;;;4906911;29;20201;-72
2023/06/07 05:06:07;;;;;;;4.43;4.03;;;;;;;;;;4924384;29;20204;-71
2023/06/07 05:08:34;;;;;;;4.20;3.80;;;;;;;;;;4925132;29;20190;-72
2023/06/07 05:11:00;;;;;;;5.43;3.60;;;;;;;;;;4910738;29;20209;-72
2023/06/07 05:13:27;;;;;;;3.80;3.50;;;;;;;;;;4925366;29;20584;-72
2023/06/07 05:15:57;;;;;;;3.93;3.43;;;;;;;;;;4923524;29;20237;-72
2023/06/07 05:18:27;;;;;;;6.17;3.60;;;;;;;;;;4912169;29;20229;-72
2023/06/07 05:20:54;;;;;;;5.60;3.77;;;;;;;;;;4910925;29;20651;-72
2023/06/07 05:23:21;;;;;;;4.40;3.50;;;;;;;;;;4932411;29;20193;-72
2023/06/07 05:25:50;;;;;;;5.40;4.03;;;;;;;;;;4933148;29;20212;-71
2023/06/07 05:28:17;;;;;;;3.60;3.30;;;;;;;;;;4926170;29;20260;-72
2023/06/07 05:30:49;;;;;;;5.93;3.53;;;;;;;;;;4907607;29;20316;-71
2023/06/07 05:33:16;;;;;;;3.90;3.50;;;;;;;;;;4925453;29;20182;-72
2023/06/07 05:35:46;;;;;;;4.10;3.70;;;;;;;;;;4930010;29;20961;-72
2023/06/07 05:38:13;;;;;;;4.77;3.50;;;;;;;;;;4925643;29;20232;-75
2023/06/07 05:40:39;;;;;;;4.30;3.60;;;;;;;;;;4928036;29;20209;-74
2023/06/07 05:43:06;;;;;;;4.70;4.17;;;;;;;;;;4925476;29;20245;-73
2023/06/07 05:45:32;;;;;;;5.73;4.23;;;;;;;;;;4907005;29;20213;-75
2023/06/07 05:47:59;;;;;;;6.00;4.30;;;;;;;;;;4920979;29;20257;-73
2023/06/07 05:50:25;;;;;;;5.60;4.30;;;;;;;;;;4923118;29;20218;-77
2023/06/07 05:52:57;;;;;;;5.07;4.47;;;;;;;;;;4921883;29;20225;-76
2023/06/07 05:55:26;;;;;;;4.53;4.10;;;;;;;;;;4922465;29;20189;-76
2023/06/07 05:57:53;;;;;;;5.03;3.93;;;;;;;;;;4923072;29;20185;-77
2023/06/07 06:00:20;;;;;;;5.37;4.13;;;;;;;;;;4914681;29;20210;-73
2023/06/07 06:02:46;;;;;;;5.30;4.50;;;;;;;;;;4920611;29;20198;-73
2023/06/07 06:05:12;;;;;;;7.60;3.90;;;;;;;;;;4922368;29;20181;-73
2023/06/07 06:07:39;;;;;;;5.17;3.97;;;;;;;;;;4914456;29;20187;-73
2023/06/07 06:10:06;;;;;;;5.07;3.83;;;;;;;;;;4925282;29;20699;-73
2023/06/07 06:12:32;;;;;;;6.47;4.43;;;;;;;;;;4928118;29;20231;-73
2023/06/07 06:14:59;;;;;;;4.73;4.10;;;;;;;;;;4924879;29;20178;-74
2023/06/07 06:17:25;;;;;;;4.47;4.07;;;;;;;;;;4929092;29;20186;-73
2023/06/07 06:19:51;;;;;;;6.50;4.27;;;;;;;;;;4926124;29;20744;-73
2023/06/07 06:22:17;;;;;;;7.17;4.40;;;;;;;;;;4928018;29;20385;-73
2023/06/07 06:24:43;;;;;;;4.20;3.83;;;;;;;;;;4928794;29;20253;-73
2023/06/07 06:27:11;;;;;;;4.23;3.50;;;;;;;;;;4932682;29;20182;-73
2023/06/07 06:29:37;;;;;;;4.73;3.63;;;;;;;;;;4927237;29;20174;-73
2023/06/07 06:32:04;;;;;;;4.40;3.90;;;;;;;;;;4931272;29;20629;-73
2023/06/07 06:34:30;;;;;;;4.37;3.73;;;;;;;;;;4932237;29;20177;-73
2023/06/07 06:37:00;;;;;;;4.90;3.80;;;;;;;;;;4933179;29;20552;-73
2023/06/07 06:39:26;;;;;;;3.80;3.50;;;;;;;;;;4914546;29;20579;-73
2023/06/07 06:41:53;;;;;;;5.63;3.63;;;;;;;;;;4915751;29;20206;-73
2023/06/07 06:44:33;;;;;;;4.10;3.50;;;;;;;;;;4924335;29;20240;-73
2023/06/07 06:47:00;;;;;;;3.53;3.20;;;;;;;;;;4933622;29;20193;-73
2023/06/07 06:49:26;;;;;;;3.53;3.23;;;;;;;;;;4933606;29;20677;-73
2023/06/07 06:51:52;;;;;;;3.93;3.30;;;;;;;;;;4930762;29;20251;-74
2023/06/07 06:54:18;;;;;;;3.40;3.10;;;;;;;;;;4924378;29;20190;-73
2023/06/07 06:56:44;;;;;;;3.57;3.27;;;;;;;;;;4927667;29;20194;-78
2023/06/07 06:59:11;;;;;;;3.73;3.40;;;;;;;;;;4928875;29;20186;-78
2023/06/07 07:01:45;;;;;;;3.83;3.37;;;;;;;;;;4925930;29;20210;-76
2023/06/07 07:04:12;;;;;;;6.07;3.27;;;;;;;;;;4932922;29;20197;-79
2023/06/07 07:06:38;;;;;;;3.47;3.17;;;;;;;;;;4935438;29;20194;-76
2023/06/07 07:09:04;;;;;;;3.77;3.47;;;;;;;;;;4931890;29;20182;-77
2023/06/07 07:11:30;;;;;;;4.27;3.40;;;;;;;;;;4934703;29;20292;-77
2023/06/07 07:13:57;;;;;;;5.13;3.57;;;;;;;;;;4933959;29;20178;-77
2023/06/07 07:16:23;;;;;;;4.27;3.87;;;;;;;;;;4932840;29;20244;-78
2023/06/07 07:18:49;;;;;;;4.50;3.40;;;;;;;;;;4936667;29;20237;-77
2023/06/07 07:21:15;;;;;;;4.90;4.03;;;;;;;;;;4936247;29;20223;-78
2023/06/07 07:23:41;;;;;;;4.10;3.70;;;;;;;;;;4935189;29;20186;-78
2023/06/07 07:26:08;;;;;;;3.90;3.60;;;;;;;;;;4937540;29;20201;-78
2023/06/07 07:28:34;;;;;;;4.80;3.90;;;;;;;;;;4933944;29;20264;-78
2023/06/07 07:31:01;;;;;;;4.13;3.77;;;;;;;;;;4935864;29;20721;-77
2023/06/07 07:33:28;;;;;;;4.10;3.70;;;;;;;;;;4924355;29;20202;-76
2023/06/07 07:35:54;;;;;;;4.10;3.70;;;;;;;;;;4937998;29;20182;-78
2023/06/07 07:38:20;;;;;;;3.77;3.47;;;;;;;;;;4937391;29;20189;-78
2023/06/07 07:40:47;;;;;;;4.00;3.47;;;;;;;;;;4936076;29;20201;-78
2023/06/07 07:43:13;;;;;;;5.43;3.77;;;;;;;;;;4936574;29;20182;-77
2023/06/07 07:45:39;;;;;;;6.83;4.27;;;;;;;;;;4935991;29;20185;-77
2023/06/07 07:48:05;;;;;;;4.37;3.97;;;;;;;;;;4935445;29;20182;-77
2023/06/07 07:50:32;;;;;;;4.70;3.63;;;;;;;;;;4936414;29;20592;-77
2023/06/07 07:52:58;;;;;;;6.63;4.30;;;;;;;;;;4935795;29;20189;-77
2023/06/07 07:55:24;;;;;;;4.10;3.80;;;;;;;;;;4930045;29;20178;-77
2023/06/07 07:57:51;;;;;;;5.17;4.13;;;;;;;;;;4933721;29;20268;-77
2023/06/07 08:00:18;;;;;;;5.80;4.00;;;;;;;;;;4935173;29;20229;-78
2023/06/07 08:02:45;;;;;;;4.10;3.80;;;;;;;;;;4935007;29;20272;-77
2023/06/07 08:05:11;;;;;;;5.27;4.40;;;;;;;;;;4939209;29;20216;-77
2023/06/07 08:07:39;;;;;;;3.90;3.60;;;;;;;;;;4939276;29;20188;-78
2023/06/07 08:10:05;;;;;;;4.43;4.00;;;;;;;;;;4939746;29;20197;-78
2023/06/07 08:12:31;;;;;;;4.60;4.20;;;;;;;;;;4938127;29;20186;-78
2023/06/07 08:14:57;;;;;;;4.40;4.00;;;;;;;;;;4938180;29;20190;-78
2023/06/07 08:17:24;;;;;;;5.07;4.63;;;;;;;;;;4936886;29;20638;-78
2023/06/07 08:19:50;;;;;;;8.20;4.80;;;;;;;;;;4938245;29;20259;-77
2023/06/07 08:22:16;;;;;;;4.40;4.00;;;;;;;;;;4938369;29;20665;-78
2023/06/07 08:24:42;;;;;;;6.67;4.20;;;;;;;;;;4938923;29;20268;-78
2023/06/07 08:27:08;;;;;;;4.63;4.23;;;;;;;;;;4931283;29;20236;-77
2023/06/07 08:29:34;;;;;;;5.40;4.30;;;;;;;;;;4939131;29;20178;-78
2023/06/07 08:32:01;;;;;;;4.43;4.03;;;;;;;;;;4938207;29;20221;-77
2023/06/07 08:34:28;;;;;;;4.43;4.03;;;;;;;;;;4938405;29;20643;-78
2023/06/07 08:36:55;;;;;;;4.80;4.30;;;;;;;;;;4939736;29;20219;-77
2023/06/07 08:39:22;;;;;;;5.30;4.90;;;;;;;;;;4937677;29;20178;-77
2023/06/07 08:41:49;;;;;;;5.50;4.97;;;;;;;;;;4939118;29;20202;-78
2023/06/07 08:44:15;;;;;;;5.17;4.77;;;;;;;;;;4937319;29;20193;-77
2023/06/07 08:46:42;;;;;;;5.20;4.80;;;;;;;;;;4938564;29;20178;-78
2023/06/07 08:49:11;;;;;;;5.30;4.80;;;;;;;;;;4936491;29;20182;-78
2023/06/07 08:51:38;;;;;;;4.53;4.23;;;;;;;;;;4937619;29;20225;-77
2023/06/07 08:54:05;;;;;;;5.73;4.83;;;;;;;;;;4936706;29;20190;-77
2023/06/07 08:56:34;;;;;;;5.20;4.73;;;;;;;;;;4937097;29;20197;-77
2023/06/07 08:59:02;;;;;;;5.07;4.67;;;;;;;;;;4937015;29;20182;-78
2023/06/07 09:01:29;;;;;;;5.20;4.73;;;;;;;;;;4940667;29;20201;-78
2023/06/07 09:03:55;;;;;;;4.90;4.50;;;;;;;;;;4918346;29;20689;-77
2023/06/07 09:06:22;;;;;;;4.87;4.30;;;;;;;;;;4936551;29;20650;-77
2023/06/07 09:08:48;;;;;;;4.80;4.30;;;;;;;;;;4936643;29;20200;-77
2023/06/07 09:11:15;;;;;;;5.07;4.43;;;;;;;;;;4935560;29;20296;-77
2023/06/07 09:13:42;;;;;;;5.80;5.07;;;;;;;;;;4931702;29;20182;-77
2023/06/07 09:16:11;;;;;;;4.73;4.33;;;;;;;;;;4932975;29;20834;-77
2023/06/07 09:18:45;;;;;;;4.90;4.50;;;;;;;;;;4935421;29;20221;-77
2023/06/07 09:21:26;;;;;;;5.10;4.60;;;;;;;;;;4936213;29;20781;-77
2023/06/07 09:23:52;;;;;;;4.97;4.47;;;;;;;;;;4936362;29;20178;-77
2023/06/07 09:26:20;;;;;;;5.53;5.03;;;;;;;;;;4934245;29;20191;-77
2023/06/07 09:28:47;;;;;;;6.47;5.00;;;;;;;;;;4936845;29;20224;-77
2023/06/07 09:31:13;;;;;;;5.43;4.93;;;;;;;;;;4939851;29;20264;-77
2023/06/07 09:33:40;;;;;;;5.63;5.03;;;;;;;;;;4937470;29;20225;-77
2023/06/07 09:36:12;;;;;;;7.33;4.90;;;;;;;;;;4937184;29;20186;-77
2023/06/07 09:38:38;;;;;;;5.53;5.00;;;;;;;;;;4935009;29;20694;-77
2023/06/07 09:41:05;;;;;;;5.60;5.10;;;;;;;;;;4935181;29;20209;-77
2023/06/07 09:43:42;;;;;;;5.50;5.10;;;;;;;;;;4934268;29;20186;-77
2023/06/07 09:46:09;;;;;;;5.67;5.17;;;;;;;;;;4936403;29;20185;-77
2023/06/07 09:48:45;;;;;;;5.47;4.97;;;;;;;;;;4934678;29;20680;-77
2023/06/07 09:51:11;;;;;;;5.27;4.87;;;;;;;;;;4932923;29;20214;-77
2023/06/07 09:53:56;;;;;;;5.23;4.77;;;;;;;;;;4934515;29;20182;-77
2023/06/07 09:56:24;;;;;;;5.10;4.70;;;;;;;;;;4934784;29;20688;-77
2023/06/07 09:59:05;;;;;;;5.07;4.67;;;;;;;;;;4935435;29;20339;-77
2023/06/07 10:01:37;;;;;;;5.20;4.80;;;;;;;;;;4935440;29;20251;-77
2023/06/07 10:04:04;;;;;;;5.53;5.03;;;;;;;;;;4935200;29;20248;-77
2023/06/07 10:06:34;;;;;;;4.97;4.57;;;;;;;;;;4935093;29;20681;-77
2023/06/07 10:09:04;;;;;;;5.10;4.70;;;;;;;;;;4938812;29;20246;-77
2023/06/07 10:11:36;;;;;;;5.00;4.60;;;;;;;;;;4935127;29;20213;-77
2023/06/07 10:14:06;;;;;;;5.77;4.80;;;;;;;;;;4935171;29;20182;-77
2023/06/07 10:16:36;;;;;;;5.20;4.70;;;;;;;;;;4936056;29;20177;-77
2023/06/07 10:19:19;;;;;;;4.73;4.23;;;;;;;;;;4934255;29;20186;-77
2023/06/07 10:21:48;;;;;;;3.80;3.50;;;;;;;;;;4932952;29;20312;-77
2023/06/07 10:24:18;;;;;;;4.37;3.93;;;;;;;;;;4934045;29;20190;-77
2023/06/07 10:26:51;;;;;;;4.20;3.90;;;;;;;;;;4932982;29;20187;-77
2023/06/07 10:29:18;;;;;;;4.73;4.30;;;;;;;;;;4935192;29;20245;-77
2023/06/07 10:31:48;;;;;;;3.97;3.67;;;;;;;;;;4934303;29;20209;-77
2023/06/07 10:34:15;;;;;;;3.40;3.20;;;;;;;;;;4935816;29;20190;-77
2023/06/07 10:36:41;;;;;;;3.53;3.23;;;;;;;;;;4935885;29;20174;-77
2023/06/07 10:39:07;;;;;;;3.57;3.30;;;;;;;;;;4935497;29;20178;-77
2023/06/07 10:41:35;;;;;;;3.07;2.80;;;;;;;;;;4937629;29;20207;-77
2023/06/07 10:44:01;;;;;;;3.67;3.17;;;;;;;;;;4937849;29;20287;-77
2023/06/07 10:46:28;;;;;;;3.47;3.00;;;;;;;;;;4936373;29;20190;-77
2023/06/07 10:48:55;;;;;;;5.87;3.73;;;;;;;;;;4935482;29;20283;-77
2023/06/07 10:51:40;;;;;;;3.60;3.30;;;;;;;;;;4935244;29;20241;-77
2023/06/07 10:54:06;;;;;;;3.43;3.20;;;;;;;;;;4929877;29;20192;-77
2023/06/07 10:56:34;;;;;;;3.67;3.37;;;;;;;;;;4936088;29;20209;-77
2023/06/07 10:59:16;;;;;;;4.50;4.10;;;;;;;;;;4935318;29;20185;-77
2023/06/07 11:01:46;;;;;;;5.27;3.50;;;;;;;;;;4935599;29;20613;-77
2023/06/07 11:04:31;;;;;;;4.10;3.73;;;;;;;;;;4934360;29;20286;-77
2023/06/07 11:07:18;;;;;;;4.07;3.77;;;;;;;;;;4929456;29;20189;-77
2023/06/07 11:09:45;;;;;;;4.33;3.93;;;;;;;;;;4935590;29;20185;-77
2023/06/07 11:12:30;;;;;;;4.37;4.07;;;;;;;;;;4936468;29;20266;-77
2023/06/07 11:15:15;;;;;;;4.10;3.80;;;;;;;;;;4918690;29;20186;-77
2023/06/07 11:17:53;;;;;;;4.20;3.80;;;;;;;;;;4935572;29;20196;-77
2023/06/07 11:20:38;;;;;;;3.63;3.33;;;;;;;;;;4934703;29;20228;-77
2023/06/07 11:23:23;;;;;;;3.83;3.47;;;;;;;;;;4928978;29;20213;-77
2023/06/07 11:25:51;;;;;;;3.80;3.50;;;;;;;;;;4933671;29;20193;-77
2023/06/07 11:28:21;;;;;;;3.70;3.40;;;;;;;;;;4934489;29;20193;-77
2023/06/07 11:30:48;;;;;;;3.33;3.03;;;;;;;;;;4935301;29;20217;-77
2023/06/07 11:33:18;;;;;;;3.43;2.93;;;;;;;;;;4934769;29;20178;-77
2023/06/07 11:35:45;;;;;;;3.60;3.30;;;;;;;;;;4943648;29;20560;-77
2023/06/07 11:38:11;;;;;;;4.00;3.50;;;;;;;;;;4934935;29;20185;-77
2023/06/07 11:40:38;;;;;;;3.80;3.50;;;;;;;;;;4925818;29;20213;-77
2023/06/07 11:43:04;;;;;;;3.50;3.20;;;;;;;;;;4935068;29;20224;-77
2023/06/07 11:45:33;;;;;;;3.60;3.40;;;;;;;;;;4933426;29;20550;-77
2023/06/07 11:48:03;;;;;;;3.90;3.60;;;;;;;;;;4929750;29;20190;-77
2023/06/07 11:50:29;;;;;;;3.90;3.60;;;;;;;;;;4933876;29;20213;-77
2023/06/07 11:52:55;;;;;;;3.40;3.10;;;;;;;;;;4934022;29;20182;-77
2023/06/07 11:55:21;;;;;;;3.77;3.40;;;;;;;;;;4934669;29;20232;-78
2023/06/07 11:57:53;;;;;;;4.00;3.70;;;;;;;;;;4934235;29;20191;-78
2023/06/07 12:00:23;;;;;;;4.13;3.30;;;;;;;;;;4934640;29;20678;-78
2023/06/07 12:02:52;;;;;;;3.70;3.40;;;;;;;;;;4934017;29;20182;-78
2023/06/07 12:05:26;;;;;;;3.30;3.10;;;;;;;;;;4930033;29;20251;-78
2023/06/07 12:07:56;;;;;;;3.60;3.30;;;;;;;;;;4919234;29;20673;-77
2023/06/07 12:10:27;;;;;;;3.20;2.90;;;;;;;;;;4935411;29;20242;-78
2023/06/07 12:13:12;;;;;;;3.57;3.27;;;;;;;;;;4934637;29;20178;-78
2023/06/07 12:15:42;;;;;;;3.43;3.20;;;;;;;;;;4934079;29;20655;-78
2023/06/07 12:18:11;;;;;;;4.33;3.20;;;;;;;;;;4933261;29;20190;-78
2023/06/07 12:20:37;;;;;;;4.43;3.80;;;;;;;;;;4932520;29;20262;-78
2023/06/07 12:23:06;;;;;;;4.60;3.50;;;;;;;;;;4935283;29;20517;-78
2023/06/07 12:25:34;;;;;;;3.40;3.10;;;;;;;;;;4934361;29;20540;-78
2023/06/07 12:28:07;;;;;;;3.43;3.13;;;;;;;;;;4935018;29;20196;-78
2023/06/07 12:30:34;;;;;;;3.53;3.33;;;;;;;;;;4934947;29;20306;-78
2023/06/07 12:33:00;;;;;;;3.37;3.17;;;;;;;;;;4931607;29;20646;-78
2023/06/07 12:35:35;;;;;;;3.30;3.10;;;;;;;;;;4916461;29;20212;-78
2023/06/07 12:38:01;;;;;;;3.07;2.83;;;;;;;;;;4900438;29;20181;-78
2023/06/07 12:40:27;;;;;;;4.57;3.37;;;;;;;;;;4918432;29;20205;-78
2023/06/07 12:42:53;;;;;;;3.13;2.93;;;;;;;;;;4926021;29;20182;-78
2023/06/07 12:45:21;;;;;;;3.23;3.03;;;;;;;;;;4908972;29;20673;-78
2023/06/07 12:47:47;;;;;;;2.90;2.70;;;;;;;;;;4928727;29;20189;-78
2023/06/07 12:50:13;;;;;;;3.00;2.80;;;;;;;;;;4936901;29;20255;-77
2023/06/07 12:52:40;;;;;;;2.63;2.43;;;;;;;;;;4926578;29;20634;-77
2023/06/07 12:55:06;;;;;;;3.50;2.60;;;;;;;;;;4941355;29;20231;-77
2023/06/07 12:57:32;;;;;;;2.90;2.70;;;;;;;;;;4932615;29;20195;-77
2023/06/07 12:59:58;;;;;;;2.70;2.50;;;;;;;;;;4904448;29;20211;-77
2023/06/07 13:02:25;;;;;;;2.80;2.60;;;;;;;;;;4936917;29;20187;-77
2023/06/07 13:04:51;;;;;;;2.63;2.40;;;;;;;;;;4936963;29;20195;-79
2023/06/07 13:07:21;;;;;;;2.47;2.27;;;;;;;;;;4928758;28;20195;-79
2023/06/07 13:09:51;;;;;;;2.20;2.10;;;;;;;;;;4936222;29;20234;-77
2023/06/07 13:12:17;;;;;;;4.23;2.40;;;;;;;;;;4938268;29;20260;-80
2023/06/07 13:14:43;;;;;;;2.77;2.57;;;;;;;;;;4934969;29;20178;-76
2023/06/07 13:17:10;;;;;;;2.33;2.23;;;;;;;;;;4928473;29;20181;-79
2023/06/07 13:19:37;;;;;;;2.60;2.40;;;;;;;;;;4934691;29;20178;-79
2023/06/07 13:22:03;;;;;;;2.53;2.40;;;;;;;;;;4933177;29;20211;-77
2023/06/07 13:24:30;;;;;;;2.80;2.60;;;;;;;;;;4939950;28;20183;-76
2023/06/07 13:26:57;;;;;;;2.50;2.30;;;;;;;;;;4934993;29;20179;-79
2023/06/07 13:29:23;;;;;;;2.77;2.13;;;;;;;;;;4928909;29;20195;-76
2023/06/07 13:31:49;;;;;;;2.37;2.17;;;;;;;;;;4934195;29;20310;-76
2023/06/07 13:34:16;;;;;;;2.10;2.00;;;;;;;;;;4926915;29;20297;-77
2023/06/07 13:36:43;;;;;;;2.20;2.10;;;;;;;;;;4934988;28;20180;-77
2023/06/07 13:39:09;;;;;;;2.57;2.37;;;;;;;;;;4933911;29;20742;-78
2023/06/07 13:41:39;;;;;;;2.30;2.10;;;;;;;;;;4933374;29;20603;-77
2023/06/07 13:44:07;;;;;;;2.30;2.10;;;;;;;;;;4906759;29;20646;-77
2023/06/07 13:46:33;;;;;;;3.20;2.20;;;;;;;;;;4936359;29;20192;-77
2023/06/07 13:48:59;;;;;;;2.27;2.17;;;;;;;;;;4935174;29;20903;-76
2023/06/07 13:51:25;;;;;;;2.20;2.10;;;;;;;;;;4933174;29;20222;-76
2023/06/07 13:53:52;;;;;;;2.30;2.10;;;;;;;;;;4934079;29;20190;-75
2023/06/07 13:56:18;;;;;;;3.17;2.20;;;;;;;;;;4932485;29;20650;-75
2023/06/07 13:58:45;;;;;;;3.20;2.30;;;;;;;;;;4933627;29;20180;-77
2023/06/07 14:01:13;;;;;;;2.20;2.07;;;;;;;;;;4929540;29;20742;-75
2023/06/07 14:03:41;;;;;;;2.70;2.50;;;;;;;;;;4931893;29;20208;-75
2023/06/07 14:06:07;;;;;;;2.50;2.30;;;;;;;;;;4937999;29;20590;-77
2023/06/07 14:08:33;;;;;;;2.40;2.20;;;;;;;;;;4922802;29;20200;-76
2023/06/07 14:11:00;;;;;;;2.47;2.27;;;;;;;;;;4929702;29;20801;-76
2023/06/07 14:13:26;;;;;;;2.20;2.00;;;;;;;;;;4922209;29;20659;-77
2023/06/07 14:15:52;;;;;;;2.33;2.17;;;;;;;;;;4928347;29;20189;-76
2023/06/07 14:18:18;;;;;;;2.50;2.33;;;;;;;;;;4927965;29;20215;-77
2023/06/07 14:20:44;;;;;;;2.50;2.30;;;;;;;;;;4926416;29;20258;-77
2023/06/07 14:23:10;;;;;;;2.77;2.57;;;;;;;;;;4935037;29;20530;-76
2023/06/07 14:25:37;;;;;;;2.70;2.27;;;;;;;;;;4935364;29;20183;-76
2023/06/07 14:28:03;;;;;;;2.63;2.43;;;;;;;;;;4931785;29;20201;-77
2023/06/07 14:30:30;;;;;;;2.83;2.28;;;;;;;;;;4926941;29;20232;-77
2023/06/07 14:32:56;;;;;;;2.50;2.40;;;;;;;;;;4930113;29;20186;-77
2023/06/07 14:35:22;;;;;;;2.60;2.40;;;;;;;;;;4928882;29;20192;-77
2023/06/07 14:37:48;;;;;;;2.97;2.70;;;;;;;;;;4934010;29;20211;-76
2023/06/07 14:40:14;;;;;;;2.87;2.67;;;;;;;;;;4936818;29;20202;-77
2023/06/07 14:42:41;;;;;;;2.93;2.73;;;;;;;;;;4927241;29;20184;-76
2023/06/07 14:45:07;;;;;;;3.13;2.60;;;;;;;;;;4934768;29;20193;-76
2023/06/07 14:47:34;;;;;;;3.23;2.57;;;;;;;;;;4934902;29;20220;-77